Time;durP1;ratioP1;P1;durP2;ratioP2;P2;SDS_P1;SDS_P2;PMS_P1;PMS_P2;Temp;Humidity;BMP_temperature;BMP_pressure;BME280_temperature;BME280_humidity;BME280_pressure;Samples;Min_cycle;Max_cycle;Signal;HPM_P1;HPM_P2
2023/04/23 00:01:17;;;;;;;33.10;30.20;;;;;;;;;;5042911;28;20465;-80
2023/04/23 00:03:44;;;;;;;29.30;27.00;;;;;;;;;;5043099;28;20480;-79
2023/04/23 00:06:12;;;;;;;32.30;29.67;;;;;;;;;;5045698;28;20859;-80
2023/04/23 00:08:40;;;;;;;32.80;30.10;;;;;;;;;;5049448;28;20446;-80
2023/04/23 00:11:07;;;;;;;36.43;33.33;;;;;;;;;;5049134;28;20421;-79
2023/04/23 00:13:36;;;;;;;35.43;31.73;;;;;;;;;;5046854;28;20418;-79
2023/04/23 00:16:03;;;;;;;34.90;31.70;;;;;;;;;;5046321;28;20970;-79
2023/04/23 00:18:30;;;;;;;39.10;35.33;;;;;;;;;;5046298;28;20446;-79
2023/04/23 00:20:57;;;;;;;38.30;34.90;;;;;;;;;;5047117;28;20496;-79
2023/04/23 00:23:24;;;;;;;38.43;34.67;;;;;;;;;;5046584;28;21217;-79
2023/04/23 00:25:51;;;;;;;37.77;34.13;;;;;;;;;;5045949;28;20468;-79
2023/04/23 00:28:18;;;;;;;39.80;36.30;;;;;;;;;;5047023;28;20451;-79
2023/04/23 00:30:46;;;;;;;34.57;30.97;;;;;;;;;;5045998;28;20968;-79
2023/04/23 00:33:13;;;;;;;38.17;34.57;;;;;;;;;;5046572;28;20447;-79
2023/04/23 00:35:40;;;;;;;37.00;33.47;;;;;;;;;;5045902;28;20459;-79
2023/04/23 00:38:07;;;;;;;38.87;35.03;;;;;;;;;;5046516;28;20838;-79
2023/04/23 00:40:34;;;;;;;37.23;33.50;;;;;;;;;;5045522;28;20449;-79
2023/04/23 00:43:02;;;;;;;39.10;35.47;;;;;;;;;;5046958;28;20430;-79
2023/04/23 00:45:29;;;;;;;39.07;35.07;;;;;;;;;;5045961;28;20505;-79
2023/04/23 00:47:58;;;;;;;38.77;35.07;;;;;;;;;;5046583;28;20454;-79
2023/04/23 00:50:25;;;;;;;38.20;34.53;;;;;;;;;;5046168;28;20445;-79
2023/04/23 00:52:52;;;;;;;39.73;35.87;;;;;;;;;;5045373;28;20838;-79
2023/04/23 00:55:19;;;;;;;40.93;34.83;;;;;;;;;;5045653;28;20468;-79
2023/04/23 00:57:47;;;;;;;36.63;33.03;;;;;;;;;;5044675;28;20504;-79
2023/04/23 01:00:15;;;;;;;38.17;34.43;;;;;;;;;;5044848;28;20445;-80
2023/04/23 01:02:43;;;;;;;40.50;36.50;;;;;;;;;;5044490;28;20438;-79
2023/04/23 01:05:12;;;;;;;38.47;34.47;;;;;;;;;;5045217;28;20454;-80
2023/04/23 01:07:39;;;;;;;37.97;34.37;;;;;;;;;;5044546;28;20478;-79
2023/04/23 01:10:07;;;;;;;38.13;34.63;;;;;;;;;;5045247;28;20471;-79
2023/04/23 01:12:34;;;;;;;43.03;38.63;;;;;;;;;;5044815;28;20493;-79
2023/04/23 01:15:01;;;;;;;36.33;33.03;;;;;;;;;;5045280;28;20449;-79
2023/04/23 01:17:28;;;;;;;36.67;32.97;;;;;;;;;;5043590;28;20476;-79
2023/04/23 01:19:55;;;;;;;42.97;38.53;;;;;;;;;;5042091;28;20475;-80
2023/04/23 01:22:24;;;;;;;41.63;37.23;;;;;;;;;;5042352;28;20406;-79
2023/04/23 01:24:52;;;;;;;43.30;38.80;;;;;;;;;;5041832;28;20493;-79
2023/04/23 01:27:21;;;;;;;45.03;40.40;;;;;;;;;;5042106;28;20430;-79
2023/04/23 01:29:48;;;;;;;42.80;38.57;;;;;;;;;;5042512;28;20491;-79
2023/04/23 01:32:15;;;;;;;42.83;38.30;;;;;;;;;;5041513;28;20448;-80
2023/04/23 01:34:43;;;;;;;39.90;35.27;;;;;;;;;;5041763;28;20449;-80
2023/04/23 01:37:10;;;;;;;43.67;39.27;;;;;;;;;;5040867;28;20414;-80
2023/04/23 01:39:38;;;;;;;44.43;40.10;;;;;;;;;;5041120;28;20430;-79
2023/04/23 01:42:07;;;;;;;43.00;38.43;;;;;;;;;;5041871;28;20923;-79
2023/04/23 01:44:34;;;;;;;43.13;38.27;;;;;;;;;;5042098;28;20958;-80
2023/04/23 01:47:01;;;;;;;44.47;39.43;;;;;;;;;;5041074;28;20513;-79
2023/04/23 01:49:28;;;;;;;41.73;37.53;;;;;;;;;;5040775;28;20464;-79
2023/04/23 01:51:55;;;;;;;44.17;39.47;;;;;;;;;;5042023;28;20476;-79
2023/04/23 01:54:22;;;;;;;41.57;37.17;;;;;;;;;;5041674;28;20850;-79
2023/04/23 01:56:53;;;;;;;42.30;37.93;;;;;;;;;;5040349;28;20430;-79
2023/04/23 01:59:20;;;;;;;43.47;38.87;;;;;;;;;;5041813;28;20903;-79
2023/04/23 02:01:47;;;;;;;45.37;40.57;;;;;;;;;;5041501;28;20454;-79
2023/04/23 02:04:15;;;;;;;46.63;41.73;;;;;;;;;;5040685;28;20462;-79
2023/04/23 02:06:43;;;;;;;45.87;41.03;;;;;;;;;;5039391;28;20438;-79
2023/04/23 02:09:11;;;;;;;43.23;38.73;;;;;;;;;;5040494;28;20474;-80
2023/04/23 02:11:38;;;;;;;44.00;39.47;;;;;;;;;;5046441;28;20511;-80
2023/04/23 02:14:07;;;;;;;35.83;32.57;;;;;;;;;;5046252;28;20472;-80
2023/04/23 02:16:34;;;;;;;46.00;41.20;;;;;;;;;;5045706;28;20465;-80
2023/04/23 02:19:01;;;;;;;44.83;40.10;;;;;;;;;;5045417;28;20539;-80
2023/04/23 02:21:28;;;;;;;45.20;40.70;;;;;;;;;;5045795;28;20490;-80
2023/04/23 02:23:56;;;;;;;45.73;40.90;;;;;;;;;;5045207;28;20573;-80
2023/04/23 02:26:24;;;;;;;44.97;39.83;;;;;;;;;;5044905;28;20426;-80
2023/04/23 02:28:51;;;;;;;41.83;37.53;;;;;;;;;;5044933;28;20462;-80
2023/04/23 02:31:19;;;;;;;41.97;37.67;;;;;;;;;;5044176;28;20453;-80
2023/04/23 02:33:46;;;;;;;42.60;38.13;;;;;;;;;;5044064;28;20512;-80
2023/04/23 02:36:13;;;;;;;35.87;32.17;;;;;;;;;;5043851;28;20860;-80
2023/04/23 02:38:43;;;;;;;38.73;34.30;;;;;;;;;;5043346;28;20475;-79
2023/04/23 02:41:10;;;;;;;43.87;38.60;;;;;;;;;;5044056;28;20432;-79
2023/04/23 02:43:37;;;;;;;44.53;39.93;;;;;;;;;;5042948;28;20476;-80
2023/04/23 02:46:07;;;;;;;44.83;40.03;;;;;;;;;;5042379;28;20472;-80
2023/04/23 02:48:36;;;;;;;43.20;37.90;;;;;;;;;;5042699;28;20442;-80
2023/04/23 02:51:03;;;;;;;45.97;41.17;;;;;;;;;;5042885;28;20518;-79
2023/04/23 02:53:30;;;;;;;42.13;37.53;;;;;;;;;;5042464;28;20455;-79
2023/04/23 02:55:58;;;;;;;42.70;38.00;;;;;;;;;;5040330;28;20449;-79
2023/04/23 02:58:25;;;;;;;41.73;37.03;;;;;;;;;;5041985;28;20440;-79
2023/04/23 03:00:52;;;;;;;44.73;39.83;;;;;;;;;;5042080;28;20422;-80
2023/04/23 03:03:19;;;;;;;43.10;38.73;;;;;;;;;;5041593;28;20486;-79
2023/04/23 03:05:48;;;;;;;44.27;39.67;;;;;;;;;;5040793;28;20469;-79
2023/04/23 03:08:15;;;;;;;42.63;37.57;;;;;;;;;;5045591;28;20463;-80
2023/04/23 03:10:42;;;;;;;43.30;38.60;;;;;;;;;;5045043;28;20426;-80
2023/04/23 03:13:09;;;;;;;44.47;38.07;;;;;;;;;;5044459;28;20414;-80
2023/04/23 03:15:36;;;;;;;46.10;39.07;;;;;;;;;;5043499;28;20426;-79
2023/04/23 03:18:07;;;;;;;45.60;40.40;;;;;;;;;;5043994;28;20430;-80
2023/04/23 03:20:34;;;;;;;46.10;41.10;;;;;;;;;;5043726;28;20618;-80
2023/04/23 03:23:05;;;;;;;47.33;38.97;;;;;;;;;;5043223;28;20513;-80
2023/04/23 03:25:32;;;;;;;44.10;39.37;;;;;;;;;;5042372;28;20483;-79
2023/04/23 03:27:59;;;;;;;44.23;39.83;;;;;;;;;;5043051;28;20459;-80
2023/04/23 03:30:26;;;;;;;47.23;39.43;;;;;;;;;;5042214;28;20513;-79
2023/04/23 03:32:53;;;;;;;47.27;42.20;;;;;;;;;;5042714;28;20456;-80
2023/04/23 03:35:20;;;;;;;45.33;39.30;;;;;;;;;;5042044;28;20422;-80
2023/04/23 03:37:47;;;;;;;47.47;42.30;;;;;;;;;;5040816;28;20438;-80
2023/04/23 03:40:15;;;;;;;51.70;42.10;;;;;;;;;;5041614;28;20450;-80
2023/04/23 03:42:42;;;;;;;45.13;40.20;;;;;;;;;;5041298;28;20447;-80
2023/04/23 03:45:10;;;;;;;47.67;40.60;;;;;;;;;;5041725;28;20541;-80
2023/04/23 03:47:37;;;;;;;48.20;42.87;;;;;;;;;;5040728;28;20490;-80
2023/04/23 03:50:05;;;;;;;47.00;41.27;;;;;;;;;;5041307;28;20515;-80
2023/04/23 03:52:32;;;;;;;47.50;42.37;;;;;;;;;;5040861;28;20494;-80
2023/04/23 03:54:59;;;;;;;45.23;39.93;;;;;;;;;;5041056;28;20455;-80
2023/04/23 03:57:28;;;;;;;45.97;41.07;;;;;;;;;;5040390;28;20442;-80
2023/04/23 03:59:54;;;;;;;46.73;41.43;;;;;;;;;;5041892;28;20535;-80
2023/04/23 04:02:21;;;;;;;51.23;41.43;;;;;;;;;;5041008;28;20441;-80
2023/04/23 04:04:50;;;;;;;50.30;43.27;;;;;;;;;;5040284;28;20514;-79
2023/04/23 04:07:17;;;;;;;48.13;42.40;;;;;;;;;;5040378;28;20823;-79
2023/04/23 04:09:45;;;;;;;49.40;43.13;;;;;;;;;;5040614;28;20464;-80
2023/04/23 04:12:12;;;;;;;47.97;42.47;;;;;;;;;;5041486;28;20447;-80
2023/04/23 04:14:41;;;;;;;54.43;45.70;;;;;;;;;;5041280;28;20430;-80
2023/04/23 04:17:08;;;;;;;51.43;43.67;;;;;;;;;;5039372;28;20430;-78
2023/04/23 04:19:35;;;;;;;54.03;42.77;;;;;;;;;;5036041;28;20454;-78
2023/04/23 04:22:02;;;;;;;48.37;40.23;;;;;;;;;;5035808;28;20434;-78
2023/04/23 04:24:31;;;;;;;50.90;41.73;;;;;;;;;;5035720;28;20458;-78
2023/04/23 04:26:58;;;;;;;53.50;43.63;;;;;;;;;;5035289;28;20459;-78
2023/04/23 04:29:25;;;;;;;51.90;41.70;;;;;;;;;;5036147;28;20541;-78
2023/04/23 04:31:54;;;;;;;59.40;45.67;;;;;;;;;;5036447;28;20426;-78
2023/04/23 04:34:21;;;;;;;54.80;44.23;;;;;;;;;;5036205;28;20501;-78
2023/04/23 04:36:48;;;;;;;53.27;45.03;;;;;;;;;;5036086;28;20429;-78
2023/04/23 04:39:16;;;;;;;53.03;44.43;;;;;;;;;;5035787;28;20452;-78
2023/04/23 04:41:43;;;;;;;53.67;46.10;;;;;;;;;;5035849;28;20451;-78
2023/04/23 04:44:10;;;;;;;49.80;41.37;;;;;;;;;;5035856;28;20460;-78
2023/04/23 04:46:39;;;;;;;54.53;43.77;;;;;;;;;;5034944;28;20676;-78
2023/04/23 04:49:09;;;;;;;52.60;42.53;;;;;;;;;;5034838;28;20447;-78
2023/04/23 04:51:37;;;;;;;52.20;42.37;;;;;;;;;;5035678;28;20399;-78
2023/04/23 04:54:04;;;;;;;57.07;45.30;;;;;;;;;;5039165;28;20476;-78
2023/04/23 04:56:31;;;;;;;56.10;43.43;;;;;;;;;;5038842;28;20455;-78
2023/04/23 04:58:58;;;;;;;52.83;43.57;;;;;;;;;;5038627;28;20452;-78
2023/04/23 05:01:26;;;;;;;56.40;43.63;;;;;;;;;;5039040;28;20827;-78
2023/04/23 05:03:53;;;;;;;57.10;47.10;;;;;;;;;;5038953;28;20510;-79
2023/04/23 05:06:21;;;;;;;53.10;44.50;;;;;;;;;;5038536;28;21047;-78
2023/04/23 05:08:48;;;;;;;57.20;46.37;;;;;;;;;;5038686;28;20984;-77
2023/04/23 05:11:15;;;;;;;57.00;47.40;;;;;;;;;;5038692;28;20451;-78
2023/04/23 05:13:42;;;;;;;59.47;46.47;;;;;;;;;;5038604;28;20451;-78
2023/04/23 05:16:10;;;;;;;59.00;47.27;;;;;;;;;;5038177;28;20455;-78
2023/04/23 05:18:37;;;;;;;58.97;45.90;;;;;;;;;;5038690;28;20452;-78
2023/04/23 05:21:05;;;;;;;61.97;48.70;;;;;;;;;;5038751;28;20442;-78
2023/04/23 05:23:33;;;;;;;59.30;46.60;;;;;;;;;;5038760;28;20534;-78
2023/04/23 05:26:02;;;;;;;63.10;47.13;;;;;;;;;;5038113;28;20482;-78
2023/04/23 05:28:29;;;;;;;63.20;46.70;;;;;;;;;;5038696;28;20860;-78
2023/04/23 05:30:57;;;;;;;58.57;45.70;;;;;;;;;;5038420;28;20464;-78
2023/04/23 05:33:24;;;;;;;58.10;46.50;;;;;;;;;;5038864;28;20510;-78
2023/04/23 05:35:50;;;;;;;51.43;43.20;;;;;;;;;;5038214;28;20430;-78
2023/04/23 05:38:18;;;;;;;64.20;48.60;;;;;;;;;;5038632;28;20451;-78
2023/04/23 05:40:46;;;;;;;60.93;44.93;;;;;;;;;;5038070;28;20422;-78
2023/04/23 05:43:13;;;;;;;54.07;44.97;;;;;;;;;;5038365;28;20411;-78
2023/04/23 05:45:40;;;;;;;55.40;43.50;;;;;;;;;;5037606;28;20457;-78
2023/04/23 05:48:07;;;;;;;65.23;49.77;;;;;;;;;;5038010;28;20810;-78
2023/04/23 05:50:34;;;;;;;70.00;48.17;;;;;;;;;;5037994;28;20430;-78
2023/04/23 05:53:01;;;;;;;55.27;45.50;;;;;;;;;;5037158;28;20455;-78
2023/04/23 05:55:28;;;;;;;63.27;48.20;;;;;;;;;;5037866;28;20428;-78
2023/04/23 05:57:57;;;;;;;61.87;47.07;;;;;;;;;;5037345;28;20931;-78
2023/04/23 06:00:24;;;;;;;57.53;45.90;;;;;;;;;;5038072;28;20430;-78
2023/04/23 06:02:51;;;;;;;61.33;47.60;;;;;;;;;;5037872;28;20429;-78
2023/04/23 06:05:18;;;;;;;57.23;44.30;;;;;;;;;;5037783;28;20483;-78
2023/04/23 06:07:45;;;;;;;55.77;45.93;;;;;;;;;;5037399;28;20490;-78
2023/04/23 06:10:13;;;;;;;62.37;48.33;;;;;;;;;;5036692;28;21039;-78
2023/04/23 06:12:40;;;;;;;64.80;49.33;;;;;;;;;;5038618;28;20760;-78
2023/04/23 06:15:10;;;;;;;60.87;50.17;;;;;;;;;;5038668;28;20426;-78
2023/04/23 06:17:37;;;;;;;56.33;46.70;;;;;;;;;;5038608;28;20430;-78
2023/04/23 06:20:05;;;;;;;59.80;48.60;;;;;;;;;;5039278;28;20452;-78
2023/04/23 06:22:32;;;;;;;53.27;46.53;;;;;;;;;;5038647;28;20476;-79
2023/04/23 06:24:59;;;;;;;57.73;46.33;;;;;;;;;;5039296;28;20454;-78
2023/04/23 06:27:26;;;;;;;59.63;47.90;;;;;;;;;;5038442;28;20418;-79
2023/04/23 06:29:53;;;;;;;54.63;46.10;;;;;;;;;;5038797;28;20531;-78
2023/04/23 06:32:22;;;;;;;54.60;45.27;;;;;;;;;;5038533;28;20460;-79
2023/04/23 06:34:50;;;;;;;62.17;48.13;;;;;;;;;;5041339;28;21043;-79
2023/04/23 06:37:17;;;;;;;51.93;44.57;;;;;;;;;;5041755;28;20456;-79
2023/04/23 06:39:44;;;;;;;52.57;45.17;;;;;;;;;;5040582;28;20479;-79
2023/04/23 06:42:11;;;;;;;52.60;44.60;;;;;;;;;;5041011;28;20497;-79
2023/04/23 06:44:38;;;;;;;50.20;42.40;;;;;;;;;;5040821;28;20509;-79
2023/04/23 06:47:05;;;;;;;53.70;42.70;;;;;;;;;;5041410;28;20462;-79
2023/04/23 06:49:33;;;;;;;47.13;38.63;;;;;;;;;;5041753;28;20439;-79
2023/04/23 06:52:00;;;;;;;43.53;39.13;;;;;;;;;;5041526;28;20481;-79
2023/04/23 06:54:27;;;;;;;45.23;40.43;;;;;;;;;;5040357;28;20438;-79
2023/04/23 06:56:55;;;;;;;44.23;39.53;;;;;;;;;;5040490;28;20830;-79
2023/04/23 06:59:22;;;;;;;45.07;40.17;;;;;;;;;;5040804;28;20478;-79
2023/04/23 07:01:49;;;;;;;45.00;40.10;;;;;;;;;;5040780;28;20453;-79
2023/04/23 07:04:16;;;;;;;44.20;39.57;;;;;;;;;;5041424;28;20464;-79
2023/04/23 07:06:45;;;;;;;42.77;38.37;;;;;;;;;;5040348;28;20545;-79
2023/04/23 07:09:11;;;;;;;40.97;36.90;;;;;;;;;;5040954;28;20520;-79
2023/04/23 07:11:39;;;;;;;40.17;36.07;;;;;;;;;;5040343;28;20426;-79
2023/04/23 07:14:06;;;;;;;40.97;36.57;;;;;;;;;;5037367;28;20479;-78
2023/04/23 07:16:33;;;;;;;40.23;36.17;;;;;;;;;;5036923;28;20456;-79
2023/04/23 07:19:01;;;;;;;39.83;36.23;;;;;;;;;;5042357;28;20539;-78
2023/04/23 07:21:28;;;;;;;38.93;35.13;;;;;;;;;;5042208;28;20529;-78
2023/04/23 07:23:58;;;;;;;40.10;36.20;;;;;;;;;;5041687;28;20414;-79
2023/04/23 07:26:26;;;;;;;38.40;34.70;;;;;;;;;;5040367;28;20455;-78
2023/04/23 07:28:53;;;;;;;35.67;32.47;;;;;;;;;;5039637;28;20555;-78
2023/04/23 07:31:20;;;;;;;36.53;33.13;;;;;;;;;;5039994;28;20577;-79
2023/04/23 07:33:47;;;;;;;37.03;33.73;;;;;;;;;;5037461;28;20422;-77
2023/04/23 07:36:14;;;;;;;37.33;34.17;;;;;;;;;;5036529;28;20907;-78
2023/04/23 07:38:41;;;;;;;36.73;33.40;;;;;;;;;;5037255;28;20443;-78
2023/04/23 07:41:10;;;;;;;37.20;33.90;;;;;;;;;;5037450;28;20492;-78
2023/04/23 07:43:36;;;;;;;35.67;32.47;;;;;;;;;;5037915;28;20756;-78
2023/04/23 07:46:04;;;;;;;34.93;31.93;;;;;;;;;;5037697;28;20454;-78
2023/04/23 07:48:32;;;;;;;38.17;34.67;;;;;;;;;;5038113;28;20839;-78
2023/04/23 07:50:59;;;;;;;34.40;31.53;;;;;;;;;;5037723;28;20470;-78
2023/04/23 07:53:27;;;;;;;31.67;29.10;;;;;;;;;;5037522;28;20860;-78
2023/04/23 07:55:54;;;;;;;31.87;29.37;;;;;;;;;;5037180;28;20422;-78
2023/04/23 07:58:23;;;;;;;30.90;28.43;;;;;;;;;;5037759;28;20933;-78
2023/04/23 08:00:50;;;;;;;31.60;29.30;;;;;;;;;;5037598;28;20914;-78
2023/04/23 08:03:17;;;;;;;33.17;30.67;;;;;;;;;;5036533;28;20433;-78
2023/04/23 08:05:44;;;;;;;32.50;30.00;;;;;;;;;;5035966;28;20487;-78
2023/04/23 08:08:12;;;;;;;33.27;30.50;;;;;;;;;;5035432;28;20769;-80
2023/04/23 08:10:39;;;;;;;35.10;32.30;;;;;;;;;;5039913;28;20430;-79
2023/04/23 08:13:06;;;;;;;31.83;29.43;;;;;;;;;;5038978;28;20440;-78
2023/04/23 08:15:35;;;;;;;34.80;31.80;;;;;;;;;;5035618;28;20794;-79
2023/04/23 08:18:02;;;;;;;35.77;32.70;;;;;;;;;;5038217;28;20914;-79
2023/04/23 08:20:30;;;;;;;35.43;32.53;;;;;;;;;;5037997;28;20954;-79
2023/04/23 08:22:58;;;;;;;34.37;31.40;;;;;;;;;;5038205;28;20430;-78
2023/04/23 08:25:25;;;;;;;36.10;33.00;;;;;;;;;;5036316;28;21075;-88
2023/04/23 08:27:52;;;;;;;36.73;33.63;;;;;;;;;;5037384;28;20439;-78
2023/04/23 08:30:19;;;;;;;34.97;31.93;;;;;;;;;;5040357;28;20450;-78
2023/04/23 08:32:49;;;;;;;36.60;33.60;;;;;;;;;;5041368;28;20430;-78
2023/04/23 08:35:16;;;;;;;34.83;31.83;;;;;;;;;;5040134;28;20798;-78
2023/04/23 08:37:43;;;;;;;34.80;32.00;;;;;;;;;;5039764;28;20476;-78
2023/04/23 08:40:10;;;;;;;35.73;32.57;;;;;;;;;;5039269;28;20966;-79
2023/04/23 08:42:39;;;;;;;34.30;31.50;;;;;;;;;;5039573;28;20422;-77
2023/04/23 08:45:06;;;;;;;34.33;31.53;;;;;;;;;;5040067;28;20424;-78
2023/04/23 08:47:34;;;;;;;30.13;27.83;;;;;;;;;;5039096;28;20983;-77
2023/04/23 08:50:04;;;;;;;31.00;28.63;;;;;;;;;;5040350;28;20508;-79
2023/04/23 08:52:34;;;;;;;32.60;30.10;;;;;;;;;;5039822;28;20476;-78
2023/04/23 08:55:01;;;;;;;27.00;25.10;;;;;;;;;;5040928;28;20432;-77
2023/04/23 08:57:28;;;;;;;29.23;27.13;;;;;;;;;;5040614;28;20426;-78
2023/04/23 08:59:56;;;;;;;29.83;27.73;;;;;;;;;;5039982;28;20855;-79
2023/04/23 09:02:23;;;;;;;28.73;26.70;;;;;;;;;;5039967;28;20467;-78
2023/04/23 09:04:53;;;;;;;27.83;25.93;;;;;;;;;;5040912;28;20436;-80
2023/04/23 09:07:21;;;;;;;26.10;24.33;;;;;;;;;;5040587;28;20487;-79
2023/04/23 09:09:48;;;;;;;27.80;25.77;;;;;;;;;;5042165;28;20459;-79
2023/04/23 09:12:15;;;;;;;27.60;25.70;;;;;;;;;;5041312;28;20422;-82
2023/04/23 09:14:42;;;;;;;29.20;27.10;;;;;;;;;;5041280;28;20430;-85
2023/04/23 09:17:09;;;;;;;30.50;27.90;;;;;;;;;;5039322;28;20932;-80
2023/04/23 09:19:37;;;;;;;29.60;27.30;;;;;;;;;;5041073;28;20561;-80
2023/04/23 09:22:04;;;;;;;28.90;26.90;;;;;;;;;;5041773;28;20446;-80
2023/04/23 09:24:34;;;;;;;29.30;27.30;;;;;;;;;;5040763;28;20436;-79
2023/04/23 09:27:02;;;;;;;28.60;26.60;;;;;;;;;;5041043;28;20881;-78
2023/04/23 09:29:30;;;;;;;28.37;26.33;;;;;;;;;;5039047;28;20878;-78
2023/04/23 09:32:03;;;;;;;28.17;26.17;;;;;;;;;;5039751;28;20451;-80
2023/04/23 09:34:30;;;;;;;27.47;25.47;;;;;;;;;;5029822;28;20499;-80
2023/04/23 09:36:57;;;;;;;30.10;28.10;;;;;;;;;;5025985;28;20458;-85
2023/04/23 09:39:24;;;;;;;28.90;26.90;;;;;;;;;;5033986;28;20466;-77
2023/04/23 09:41:53;;;;;;;29.30;27.10;;;;;;;;;;5035966;28;20434;-78
2023/04/23 09:44:22;;;;;;;27.20;25.27;;;;;;;;;;5034852;28;20925;-78
2023/04/23 09:46:49;;;;;;;27.00;25.30;;;;;;;;;;5034651;28;20993;-83
2023/04/23 09:49:16;;;;;;;29.27;27.27;;;;;;;;;;5035397;28;20468;-89
2023/04/23 09:51:45;;;;;;;27.47;25.77;;;;;;;;;;5035590;28;21082;-85
2023/04/23 09:54:13;;;;;;;26.63;24.60;;;;;;;;;;5037418;28;20430;-88
2023/04/23 09:56:40;;;;;;;25.90;24.20;;;;;;;;;;5035543;28;20855;-89
2023/04/23 09:59:21;;;;;;;26.77;24.97;;;;;;;;;;5036310;28;20447;-86
2023/04/23 10:01:48;;;;;;;24.33;22.93;;;;;;;;;;5037865;28;20398;-87
2023/04/23 10:04:18;;;;;;;26.50;24.80;;;;;;;;;;5036762;28;20449;-85
2023/04/23 10:06:45;;;;;;;27.10;25.30;;;;;;;;;;5036157;28;20558;-84
2023/04/23 10:09:13;;;;;;;24.67;23.13;;;;;;;;;;5036079;28;20481;-88
2023/04/23 10:11:40;;;;;;;26.73;24.90;;;;;;;;;;5036901;28;20448;-88
2023/04/23 10:14:08;;;;;;;26.33;24.70;;;;;;;;;;5040582;28;20446;-88
2023/04/23 10:16:37;;;;;;;26.70;24.93;;;;;;;;;;5037815;28;20849;-87
2023/04/23 10:19:05;;;;;;;26.27;24.37;;;;;;;;;;5038278;28;20512;-88
2023/04/23 10:21:32;;;;;;;27.30;25.50;;;;;;;;;;5036026;28;20929;-84
2023/04/23 10:24:02;;;;;;;26.57;24.83;;;;;;;;;;5036312;28;20521;-88
2023/04/23 10:26:31;;;;;;;26.47;24.90;;;;;;;;;;5034915;28;20465;-84
2023/04/23 10:28:59;;;;;;;26.20;24.60;;;;;;;;;;5035228;28;20495;-86
2023/04/23 10:31:26;;;;;;;27.10;25.40;;;;;;;;;;5036144;28;20456;-86
2023/04/23 10:33:56;;;;;;;25.40;23.70;;;;;;;;;;5038269;28;20510;-87
2023/04/23 10:36:24;;;;;;;27.17;25.57;;;;;;;;;;5049528;28;20455;-87
2023/04/23 10:38:53;;;;;;;26.43;24.70;;;;;;;;;;5047624;28;20482;-86
2023/04/23 10:41:23;;;;;;;27.43;25.50;;;;;;;;;;5045831;28;20426;-86
2023/04/23 10:43:50;;;;;;;24.77;23.07;;;;;;;;;;5041975;28;20467;-87
2023/04/23 10:46:28;;;;;;;27.40;25.30;;;;;;;;;;5040204;28;20948;-85
2023/04/23 10:49:07;;;;;;;372.73;331.97;;;;;;;;;;5038588;28;20498;-85
2023/04/23 10:51:35;;;;;;;25.77;24.00;;;;;;;;;;5038337;28;20446;-85
2023/04/23 10:54:04;;;;;;;31.17;28.47;;;;;;;;;;5039259;28;20807;-84
2023/04/23 10:56:31;;;;;;;27.87;25.87;;;;;;;;;;5032025;28;20477;-77
2023/04/23 10:58:59;;;;;;;28.07;26.17;;;;;;;;;;5036997;28;20523;-84
2023/04/23 11:01:26;;;;;;;25.90;24.40;;;;;;;;;;5039336;28;20525;-84
2023/04/23 11:03:53;;;;;;;24.27;22.87;;;;;;;;;;5038455;28;20966;-84
2023/04/23 11:06:42;;;;;;;27.17;25.37;;;;;;;;;;5039443;28;20522;-84
2023/04/23 11:09:24;;;;;;;28.87;26.50;;;;;;;;;;5037365;28;20496;-84
2023/04/23 11:11:51;;;;;;;25.87;24.03;;;;;;;;;;5038539;28;20430;-83
2023/04/23 11:14:18;;;;;;;25.70;24.07;;;;;;;;;;5037955;28;20410;-87
2023/04/23 11:16:45;;;;;;;26.23;24.63;;;;;;;;;;5035237;28;20452;-86
2023/04/23 11:19:14;;;;;;;24.40;22.90;;;;;;;;;;5035124;28;20463;-86
2023/04/23 11:21:59;;;;;;;24.70;23.23;;;;;;;;;;5036180;28;20459;-86
2023/04/23 11:24:27;;;;;;;23.43;22.03;;;;;;;;;;5035198;28;20852;-87
2023/04/23 11:26:56;;;;;;;23.50;22.30;;;;;;;;;;5036324;28;20507;-86
2023/04/23 11:29:23;;;;;;;22.90;21.60;;;;;;;;;;5036005;28;20531;-86
2023/04/23 11:31:51;;;;;;;24.47;23.07;;;;;;;;;;5036436;28;20411;-85
2023/04/23 11:34:18;;;;;;;23.17;21.77;;;;;;;;;;5037196;28;20456;-87
2023/04/23 11:36:45;;;;;;;24.27;22.87;;;;;;;;;;5036825;28;20920;-87
2023/04/23 11:39:15;;;;;;;24.90;23.50;;;;;;;;;;5017082;28;20478;-80
2023/04/23 11:41:42;;;;;;;22.90;21.60;;;;;;;;;;5037557;28;20426;-79
2023/04/23 11:44:10;;;;;;;22.97;21.67;;;;;;;;;;5035749;28;20471;-79
2023/04/23 11:46:37;;;;;;;23.77;22.47;;;;;;;;;;5035868;28;20429;-78
2023/04/23 11:49:05;;;;;;;24.63;22.93;;;;;;;;;;5034616;28;20584;-78
2023/04/23 11:51:32;;;;;;;22.43;21.10;;;;;;;;;;5035000;28;20461;-78
2023/04/23 11:54:05;;;;;;;23.40;21.87;;;;;;;;;;5037277;28;20468;-79
2023/04/23 11:56:34;;;;;;;22.33;21.03;;;;;;;;;;5039626;28;20481;-79
2023/04/23 11:59:02;;;;;;;22.37;21.17;;;;;;;;;;5038846;28;20453;-79
2023/04/23 12:01:42;;;;;;;22.30;21.00;;;;;;;;;;5037467;28;20426;-78
2023/04/23 12:04:13;;;;;;;22.50;21.10;;;;;;;;;;5036488;28;20555;-78
2023/04/23 12:06:41;;;;;;;22.23;20.93;;;;;;;;;;5039245;28;20463;-79
2023/04/23 12:09:09;;;;;;;23.20;21.80;;;;;;;;;;5042687;28;20537;-79
2023/04/23 12:11:37;;;;;;;21.83;20.43;;;;;;;;;;5043147;28;20458;-79
2023/04/23 12:14:05;;;;;;;22.63;21.30;;;;;;;;;;5039392;28;20472;-78
2023/04/23 12:16:35;;;;;;;22.33;21.03;;;;;;;;;;5038561;28;20937;-78
2023/04/23 12:19:02;;;;;;;22.97;21.60;;;;;;;;;;5039048;28;20522;-78
2023/04/23 12:21:29;;;;;;;23.73;22.43;;;;;;;;;;5039108;28;20510;-78
2023/04/23 12:23:57;;;;;;;23.63;22.33;;;;;;;;;;5039678;28;20455;-78
2023/04/23 12:26:25;;;;;;;22.43;21.23;;;;;;;;;;5038845;28;20486;-78
2023/04/23 12:28:54;;;;;;;22.40;21.20;;;;;;;;;;5037670;28;20469;-79
2023/04/23 12:31:22;;;;;;;22.77;21.47;;;;;;;;;;5038259;28;20963;-78
2023/04/23 12:33:54;;;;;;;22.57;21.27;;;;;;;;;;5038657;28;20985;-78
2023/04/23 12:36:21;;;;;;;22.80;21.60;;;;;;;;;;5038182;28;20449;-78
2023/04/23 12:38:48;;;;;;;23.60;22.17;;;;;;;;;;5037691;28;20994;-78
2023/04/23 12:41:15;;;;;;;23.17;21.47;;;;;;;;;;5037941;28;20515;-78
2023/04/23 12:43:47;;;;;;;22.87;21.57;;;;;;;;;;5037916;28;20475;-79
2023/04/23 12:46:15;;;;;;;22.70;21.10;;;;;;;;;;5037752;28;20802;-79
2023/04/23 12:48:42;;;;;;;23.07;21.77;;;;;;;;;;5037341;28;20462;-78
2023/04/23 12:51:09;;;;;;;23.90;22.30;;;;;;;;;;5037376;28;20426;-79
2023/04/23 12:53:37;;;;;;;24.40;22.80;;;;;;;;;;5038127;28;20444;-79
2023/04/23 12:56:04;;;;;;;23.37;21.73;;;;;;;;;;5037372;28;20481;-78
2023/04/23 12:58:30;;;;;;;23.70;22.40;;;;;;;;;;5038155;28;20518;-79
2023/04/23 13:00:58;;;;;;;23.97;22.57;;;;;;;;;;5037481;28;20504;-78
2023/04/23 13:03:26;;;;;;;22.47;21.27;;;;;;;;;;5036216;28;20476;-78
2023/04/23 13:05:53;;;;;;;23.57;22.30;;;;;;;;;;5036790;28;20407;-79
2023/04/23 13:08:20;;;;;;;22.60;21.30;;;;;;;;;;5037589;28;20465;-78
2023/04/23 13:10:48;;;;;;;22.13;20.93;;;;;;;;;;5037522;28;20477;-78
2023/04/23 13:13:15;;;;;;;23.00;21.80;;;;;;;;;;5038112;28;20536;-79
2023/04/23 13:15:43;;;;;;;23.57;22.23;;;;;;;;;;5039408;28;20496;-78
2023/04/23 13:18:09;;;;;;;22.90;21.70;;;;;;;;;;5040702;28;20427;-78
2023/04/23 13:20:38;;;;;;;23.20;22.00;;;;;;;;;;5040284;28;20512;-79
2023/04/23 13:23:07;;;;;;;22.70;21.40;;;;;;;;;;5040676;28;20465;-78
2023/04/23 13:25:34;;;;;;;23.30;22.00;;;;;;;;;;5040207;28;20433;-79
2023/04/23 13:28:01;;;;;;;22.60;21.40;;;;;;;;;;5040174;28;20502;-78
2023/04/23 13:30:28;;;;;;;22.00;20.83;;;;;;;;;;5040205;28;20448;-79
2023/04/23 13:32:57;;;;;;;22.50;21.20;;;;;;;;;;5040431;28;20511;-79
2023/04/23 13:35:24;;;;;;;21.90;20.80;;;;;;;;;;5039987;28;20457;-79
2023/04/23 13:37:53;;;;;;;22.47;21.27;;;;;;;;;;5039098;28;20453;-79
2023/04/23 13:40:20;;;;;;;23.10;21.90;;;;;;;;;;5040090;28;20477;-78
2023/04/23 13:42:49;;;;;;;22.93;21.70;;;;;;;;;;5039701;28;20875;-78
2023/04/23 13:45:16;;;;;;;23.43;21.73;;;;;;;;;;5039437;28;20494;-78
2023/04/23 13:47:43;;;;;;;22.00;20.60;;;;;;;;;;5038813;28;20484;-78
2023/04/23 13:50:10;;;;;;;21.80;20.30;;;;;;;;;;5039195;28;20997;-79
2023/04/23 13:52:38;;;;;;;23.10;21.80;;;;;;;;;;5038992;28;20458;-78
2023/04/23 13:55:08;;;;;;;23.50;22.20;;;;;;;;;;5039048;28;20462;-78
2023/04/23 13:57:37;;;;;;;22.80;21.50;;;;;;;;;;5038988;28;20474;-78
2023/04/23 14:00:04;;;;;;;22.13;20.93;;;;;;;;;;5038564;28;20794;-79
2023/04/23 14:02:31;;;;;;;22.00;20.80;;;;;;;;;;5039240;28;20458;-79
2023/04/23 14:04:58;;;;;;;22.53;20.77;;;;;;;;;;5038968;28;20863;-78
2023/04/23 14:07:25;;;;;;;23.00;21.37;;;;;;;;;;5038907;28;20520;-79
2023/04/23 14:09:52;;;;;;;21.43;20.33;;;;;;;;;;5038774;28;20500;-79
2023/04/23 14:12:22;;;;;;;22.20;21.00;;;;;;;;;;5039826;28;20909;-79
2023/04/23 14:14:50;;;;;;;21.17;20.07;;;;;;;;;;5039160;28;20483;-78
2023/04/23 14:17:17;;;;;;;22.30;21.10;;;;;;;;;;5039108;28;20421;-78
2023/04/23 14:19:44;;;;;;;22.37;21.07;;;;;;;;;;5039529;28;20427;-79